Time;durP1;ratioP1;P1;durP2;ratioP2;P2;SDS_P1;SDS_P2;PMS_P1;PMS_P2;Temp;Humidity;BMP_temperature;BMP_pressure;BME280_temperature;BME280_humidity;BME280_pressure;Samples;Min_cycle;Max_cycle;Signal;HPM_P1;HPM_P2
2023/09/11 00:01:13;;;;;;;13.02;6.35;;;;;;;;;;5108175;28;20374;-67
2023/09/11 00:03:40;;;;;;;9.00;5.78;;;;;;;;;;5095682;28;20015;-67
2023/09/11 00:06:06;;;;;;;9.77;6.57;;;;;;;;;;5105483;28;20022;-67
2023/09/11 00:08:32;;;;;;;11.68;6.55;;;;;;;;;;5109504;28;20027;-67
2023/09/11 00:10:59;;;;;;;8.73;6.30;;;;;;;;;;5109310;28;20046;-66
2023/09/11 00:13:25;;;;;;;12.32;6.40;;;;;;;;;;5101186;28;20020;-67
2023/09/11 00:15:51;;;;;;;9.02;5.50;;;;;;;;;;5109116;28;20462;-67
2023/09/11 00:18:18;;;;;;;8.40;6.18;;;;;;;;;;5108652;27;20063;-67
2023/09/11 00:20:44;;;;;;;13.68;5.47;;;;;;;;;;5107361;28;20054;-67
2023/09/11 00:23:10;;;;;;;8.98;5.10;;;;;;;;;;5110014;28;20068;-67
2023/09/11 00:25:36;;;;;;;9.07;5.05;;;;;;;;;;5097147;28;20031;-67
2023/09/11 00:28:03;;;;;;;6.88;4.60;;;;;;;;;;5095976;28;20027;-67
2023/09/11 00:30:29;;;;;;;4.47;4.03;;;;;;;;;;5106824;27;20042;-67
2023/09/11 00:32:55;;;;;;;7.78;4.45;;;;;;;;;;5092003;28;20059;-67
2023/09/11 00:35:21;;;;;;;9.02;4.10;;;;;;;;;;5106568;27;20773;-67
2023/09/11 00:37:47;;;;;;;7.00;4.10;;;;;;;;;;5108641;27;20140;-67
2023/09/11 00:40:13;;;;;;;10.60;4.82;;;;;;;;;;5105766;28;20487;-67
2023/09/11 00:42:40;;;;;;;10.13;4.38;;;;;;;;;;5105208;28;20035;-67
2023/09/11 00:45:06;;;;;;;6.47;4.10;;;;;;;;;;5109636;28;20032;-67
2023/09/11 00:47:32;;;;;;;7.22;3.58;;;;;;;;;;5101483;28;20446;-67
2023/09/11 00:49:59;;;;;;;6.75;3.85;;;;;;;;;;5104725;28;20145;-67
2023/09/11 00:52:26;;;;;;;7.18;3.85;;;;;;;;;;5092155;28;20028;-67
2023/09/11 00:54:53;;;;;;;8.93;4.13;;;;;;;;;;5100641;28;20024;-67
2023/09/11 00:57:19;;;;;;;7.20;3.85;;;;;;;;;;5106875;27;20384;-67
2023/09/11 00:59:49;;;;;;;9.75;4.47;;;;;;;;;;5102490;28;20030;-67
2023/09/11 01:02:15;;;;;;;11.00;4.13;;;;;;;;;;5093482;28;20035;-68
2023/09/11 01:04:42;;;;;;;7.50;4.30;;;;;;;;;;5103929;27;20565;-68
2023/09/11 01:07:09;;;;;;;9.48;4.82;;;;;;;;;;5106567;28;20452;-67
2023/09/11 01:09:35;;;;;;;5.13;3.90;;;;;;;;;;5083805;28;20084;-67
2023/09/11 01:12:01;;;;;;;4.70;3.22;;;;;;;;;;5107822;28;20031;-67
2023/09/11 01:14:27;;;;;;;6.88;3.63;;;;;;;;;;5105873;28;20032;-68
2023/09/11 01:17:05;;;;;;;7.90;3.50;;;;;;;;;;5103208;28;20153;-67
2023/09/11 01:19:31;;;;;;;5.18;3.47;;;;;;;;;;5084784;28;20470;-67
2023/09/11 01:22:04;;;;;;;4.03;3.35;;;;;;;;;;5106444;28;20023;-67
2023/09/11 01:24:42;;;;;;;5.68;3.25;;;;;;;;;;5102208;28;20131;-67
2023/09/11 01:27:27;;;;;;;4.32;3.30;;;;;;;;;;5105374;28;20039;-67
2023/09/11 01:29:53;;;;;;;6.70;3.20;;;;;;;;;;5104828;28;20114;-67
2023/09/11 01:32:25;;;;;;;6.70;3.15;;;;;;;;;;5106731;28;20028;-68
2023/09/11 01:34:51;;;;;;;7.88;3.55;;;;;;;;;;5102248;27;20028;-67
2023/09/11 01:37:17;;;;;;;4.43;3.00;;;;;;;;;;5105252;28;21035;-67
2023/09/11 01:39:43;;;;;;;6.55;3.38;;;;;;;;;;5105015;28;20028;-68
2023/09/11 01:42:11;;;;;;;4.65;3.00;;;;;;;;;;5101142;28;20503;-67
2023/09/11 01:44:44;;;;;;;7.20;3.00;;;;;;;;;;5101349;28;20081;-67
2023/09/11 01:47:14;;;;;;;6.97;3.08;;;;;;;;;;5103118;28;20023;-67
2023/09/11 01:49:43;;;;;;;5.60;2.88;;;;;;;;;;5105620;28;20089;-67
2023/09/11 01:52:13;;;;;;;4.78;2.65;;;;;;;;;;5091012;28;20114;-68
2023/09/11 01:54:39;;;;;;;4.65;3.05;;;;;;;;;;5105049;28;20502;-67
2023/09/11 01:57:06;;;;;;;4.03;2.42;;;;;;;;;;5102767;28;20019;-68
2023/09/11 01:59:32;;;;;;;5.53;2.78;;;;;;;;;;5082267;28;20793;-68
2023/09/11 02:01:58;;;;;;;6.78;3.40;;;;;;;;;;5100588;28;20024;-67
2023/09/11 02:04:25;;;;;;;5.75;3.03;;;;;;;;;;5104429;28;20020;-68
2023/09/11 02:06:51;;;;;;;4.60;2.97;;;;;;;;;;5100362;28;20088;-68
2023/09/11 02:09:17;;;;;;;4.03;2.60;;;;;;;;;;5107549;28;20032;-67
2023/09/11 02:11:43;;;;;;;5.00;2.53;;;;;;;;;;5093841;28;20444;-67
2023/09/11 02:14:09;;;;;;;3.65;2.72;;;;;;;;;;5097260;28;20031;-67
2023/09/11 02:16:36;;;;;;;4.07;3.08;;;;;;;;;;5105457;28;20491;-68
2023/09/11 02:19:02;;;;;;;4.60;2.97;;;;;;;;;;5105306;28;20866;-68
2023/09/11 02:21:31;;;;;;;2.80;2.45;;;;;;;;;;5100715;28;20041;-67
2023/09/11 02:23:57;;;;;;;4.07;3.00;;;;;;;;;;5103520;28;20027;-67
2023/09/11 02:26:23;;;;;;;3.28;2.63;;;;;;;;;;5102251;28;20483;-67
2023/09/11 02:28:49;;;;;;;4.38;2.67;;;;;;;;;;5100540;28;20058;-67
2023/09/11 02:31:15;;;;;;;5.55;2.40;;;;;;;;;;5103698;28;20367;-68
2023/09/11 02:33:41;;;;;;;2.83;2.30;;;;;;;;;;5106115;28;20024;-67
2023/09/11 02:36:07;;;;;;;3.63;2.25;;;;;;;;;;5104156;28;20089;-67
2023/09/11 02:38:33;;;;;;;2.28;2.08;;;;;;;;;;5101029;28;20088;-67
2023/09/11 02:40:59;;;;;;;2.63;2.20;;;;;;;;;;5098965;28;20510;-67
2023/09/11 02:43:25;;;;;;;2.13;1.92;;;;;;;;;;5102772;28;20031;-67
2023/09/11 02:45:51;;;;;;;4.15;2.00;;;;;;;;;;5101178;28;20027;-67
2023/09/11 02:48:18;;;;;;;2.80;1.83;;;;;;;;;;5103294;28;20027;-67
2023/09/11 02:50:44;;;;;;;4.03;1.77;;;;;;;;;;5102956;28;20034;-67
2023/09/11 02:53:13;;;;;;;3.65;1.85;;;;;;;;;;5102836;28;20023;-68
2023/09/11 02:55:42;;;;;;;2.28;2.05;;;;;;;;;;5103253;28;20364;-67
2023/09/11 02:58:08;;;;;;;5.78;1.75;;;;;;;;;;5104191;28;20387;-68
2023/09/11 03:00:37;;;;;;;3.35;1.85;;;;;;;;;;5101431;28;20065;-67
2023/09/11 03:03:05;;;;;;;2.00;1.80;;;;;;;;;;5103434;28;20099;-68
2023/09/11 03:05:32;;;;;;;3.33;2.50;;;;;;;;;;5103751;28;20396;-68
2023/09/11 03:07:59;;;;;;;3.70;2.15;;;;;;;;;;5100293;28;20080;-68
2023/09/11 03:10:25;;;;;;;3.47;2.17;;;;;;;;;;5097427;28;20164;-68
2023/09/11 03:12:52;;;;;;;2.42;2.00;;;;;;;;;;5098057;28;20056;-67
2023/09/11 03:15:18;;;;;;;3.38;2.15;;;;;;;;;;5073496;28;20028;-68
2023/09/11 03:17:49;;;;;;;2.38;2.17;;;;;;;;;;5098173;28;20032;-68
2023/09/11 03:20:15;;;;;;;2.00;1.60;;;;;;;;;;5101164;28;20016;-67
2023/09/11 03:22:41;;;;;;;3.58;2.05;;;;;;;;;;5093816;28;20070;-68
2023/09/11 03:25:07;;;;;;;2.20;1.90;;;;;;;;;;5103732;28;20032;-68
2023/09/11 03:27:33;;;;;;;2.58;2.10;;;;;;;;;;5109263;28;20463;-67
2023/09/11 03:30:00;;;;;;;2.40;1.85;;;;;;;;;;5101308;28;20497;-68
2023/09/11 03:32:26;;;;;;;2.10;1.90;;;;;;;;;;5107662;28;20019;-68
2023/09/11 03:34:55;;;;;;;3.45;1.88;;;;;;;;;;5105004;28;20039;-68
2023/09/11 03:37:22;;;;;;;3.03;1.90;;;;;;;;;;5101496;28;20016;-67
2023/09/11 03:39:48;;;;;;;3.17;1.75;;;;;;;;;;5103829;28;20028;-67
2023/09/11 03:42:14;;;;;;;1.90;1.80;;;;;;;;;;5109267;28;20032;-67
2023/09/11 03:44:40;;;;;;;3.75;1.90;;;;;;;;;;5106207;28;20024;-67
2023/09/11 03:47:06;;;;;;;2.15;1.80;;;;;;;;;;5084044;28;20384;-67
2023/09/11 03:49:32;;;;;;;2.45;1.90;;;;;;;;;;5102643;28;20419;-67
2023/09/11 03:51:58;;;;;;;7.63;2.50;;;;;;;;;;5084051;28;20027;-68
2023/09/11 03:54:25;;;;;;;2.60;2.20;;;;;;;;;;5101716;28;20086;-67
2023/09/11 03:56:51;;;;;;;3.35;2.22;;;;;;;;;;5084969;28;20027;-67
2023/09/11 03:59:17;;;;;;;3.60;2.20;;;;;;;;;;5100411;28;20039;-67
2023/09/11 04:01:43;;;;;;;3.13;2.50;;;;;;;;;;5083958;28;20186;-67
2023/09/11 04:04:09;;;;;;;5.15;2.60;;;;;;;;;;5107065;28;20012;-67
2023/09/11 04:06:35;;;;;;;2.83;2.20;;;;;;;;;;5104323;28;20019;-67
2023/09/11 04:09:01;;;;;;;4.78;2.55;;;;;;;;;;5105957;28;20057;-67
2023/09/11 04:11:27;;;;;;;2.58;2.30;;;;;;;;;;5101602;28;20442;-67
2023/09/11 04:13:53;;;;;;;2.08;1.88;;;;;;;;;;5106858;28;20138;-67
2023/09/11 04:16:21;;;;;;;3.10;2.20;;;;;;;;;;5103934;28;20040;-68
2023/09/11 04:18:47;;;;;;;3.72;2.33;;;;;;;;;;5106484;28;20042;-67
2023/09/11 04:21:13;;;;;;;4.68;2.15;;;;;;;;;;5103944;28;20489;-67
2023/09/11 04:23:40;;;;;;;3.67;2.35;;;;;;;;;;5106128;28;20153;-67
2023/09/11 04:26:06;;;;;;;5.50;2.70;;;;;;;;;;5107202;28;20468;-67
2023/09/11 04:28:34;;;;;;;3.63;2.50;;;;;;;;;;5096272;28;20030;-67
2023/09/11 04:31:00;;;;;;;3.13;2.38;;;;;;;;;;5104444;28;20031;-67
2023/09/11 04:33:27;;;;;;;3.22;2.10;;;;;;;;;;5106771;28;20525;-67
2023/09/11 04:35:53;;;;;;;2.20;2.00;;;;;;;;;;5103122;28;21514;-67
2023/09/11 04:38:20;;;;;;;2.70;2.22;;;;;;;;;;5104526;28;20048;-67
2023/09/11 04:40:46;;;;;;;3.42;2.15;;;;;;;;;;5104520;28;20028;-67
2023/09/11 04:43:12;;;;;;;2.40;2.00;;;;;;;;;;5094917;28;20059;-67
2023/09/11 04:45:38;;;;;;;2.20;2.00;;;;;;;;;;5097650;28;20024;-67
2023/09/11 04:48:04;;;;;;;3.00;2.00;;;;;;;;;;5104227;28;20050;-67
2023/09/11 04:50:30;;;;;;;2.95;1.95;;;;;;;;;;5094730;28;20047;-67
2023/09/11 04:52:56;;;;;;;4.32;2.20;;;;;;;;;;5105923;28;20088;-67
2023/09/11 04:55:23;;;;;;;2.30;1.80;;;;;;;;;;5090980;28;20034;-67
2023/09/11 04:57:49;;;;;;;3.30;2.13;;;;;;;;;;5089259;28;20039;-67
2023/09/11 05:00:15;;;;;;;3.08;1.98;;;;;;;;;;5101157;28;20139;-67
2023/09/11 05:02:41;;;;;;;2.58;1.98;;;;;;;;;;5106367;28;20028;-67
2023/09/11 05:05:07;;;;;;;2.42;2.10;;;;;;;;;;5106351;28;20058;-67
2023/09/11 05:07:33;;;;;;;2.78;2.25;;;;;;;;;;5105416;28;20103;-67
2023/09/11 05:10:01;;;;;;;3.70;2.42;;;;;;;;;;5105883;28;20029;-68
2023/09/11 05:12:27;;;;;;;2.50;2.10;;;;;;;;;;5107471;28;20541;-67
2023/09/11 05:14:53;;;;;;;2.55;2.00;;;;;;;;;;5082621;28;20026;-67
2023/09/11 05:17:20;;;;;;;3.13;2.15;;;;;;;;;;5099761;28;20040;-67
2023/09/11 05:19:46;;;;;;;3.58;2.50;;;;;;;;;;5102253;28;20035;-69
2023/09/11 05:22:12;;;;;;;2.88;2.25;;;;;;;;;;5103348;28;20028;-67
2023/09/11 05:24:38;;;;;;;2.95;2.25;;;;;;;;;;5103285;28;20148;-67
2023/09/11 05:27:04;;;;;;;5.60;2.42;;;;;;;;;;5089434;28;20015;-66
2023/09/11 05:29:30;;;;;;;4.28;2.50;;;;;;;;;;5104755;28;20027;-67
2023/09/11 05:31:56;;;;;;;3.17;2.78;;;;;;;;;;5107752;28;20043;-67
2023/09/11 05:34:22;;;;;;;3.97;2.72;;;;;;;;;;5075678;28;20034;-67
2023/09/11 05:36:48;;;;;;;6.45;3.20;;;;;;;;;;5088430;28;20031;-67
2023/09/11 05:39:14;;;;;;;3.67;3.03;;;;;;;;;;5100309;28;20031;-67
2023/09/11 05:41:40;;;;;;;4.35;3.10;;;;;;;;;;5102575;28;20027;-66
2023/09/11 05:44:06;;;;;;;5.57;3.00;;;;;;;;;;5103459;28;20114;-64
2023/09/11 05:46:33;;;;;;;4.25;2.78;;;;;;;;;;5100363;28;20019;-67
2023/09/11 05:48:59;;;;;;;6.82;2.80;;;;;;;;;;5103467;28;20036;-69
2023/09/11 05:51:25;;;;;;;3.97;3.05;;;;;;;;;;5106134;28;20034;-69
2023/09/11 05:53:51;;;;;;;7.80;2.90;;;;;;;;;;5087090;28;20139;-67
2023/09/11 05:56:18;;;;;;;5.50;2.83;;;;;;;;;;5105374;28;20351;-67
2023/09/11 05:58:44;;;;;;;5.50;2.85;;;;;;;;;;5080453;28;20035;-66
2023/09/11 06:01:11;;;;;;;7.55;2.63;;;;;;;;;;5089256;28;20060;-67
2023/09/11 06:03:37;;;;;;;6.30;2.60;;;;;;;;;;5100092;28;20028;-67
2023/09/11 06:06:03;;;;;;;5.97;2.65;;;;;;;;;;5105323;28;20593;-67
2023/09/11 06:08:29;;;;;;;5.15;2.85;;;;;;;;;;5102409;28;20467;-67
2023/09/11 06:10:58;;;;;;;3.38;2.78;;;;;;;;;;5098347;28;20016;-66
2023/09/11 06:13:24;;;;;;;5.18;2.38;;;;;;;;;;5082231;28;20119;-67
2023/09/11 06:15:50;;;;;;;5.22;2.40;;;;;;;;;;5104235;28;20487;-67
2023/09/11 06:18:16;;;;;;;4.28;2.75;;;;;;;;;;5103433;28;20031;-67
2023/09/11 06:20:42;;;;;;;4.78;2.70;;;;;;;;;;5106553;28;20163;-67
2023/09/11 06:23:10;;;;;;;5.68;2.45;;;;;;;;;;5100227;28;20507;-67
2023/09/11 06:25:36;;;;;;;4.65;2.22;;;;;;;;;;5101934;28;20043;-67
2023/09/11 06:28:03;;;;;;;4.05;2.20;;;;;;;;;;5105272;28;20023;-67
2023/09/11 06:30:32;;;;;;;4.00;2.35;;;;;;;;;;5105815;27;20028;-67
2023/09/11 06:32:58;;;;;;;5.22;2.60;;;;;;;;;;5104475;28;20376;-67
2023/09/11 06:35:24;;;;;;;4.75;2.50;;;;;;;;;;5104540;28;20040;-67
2023/09/11 06:37:54;;;;;;;5.28;2.67;;;;;;;;;;5102936;28;20100;-67
2023/09/11 06:40:21;;;;;;;6.13;2.80;;;;;;;;;;5094136;28;20023;-67
2023/09/11 06:42:47;;;;;;;3.92;2.40;;;;;;;;;;5103978;28;20076;-67
2023/09/11 06:45:13;;;;;;;2.92;2.25;;;;;;;;;;5104914;28;20539;-67
2023/09/11 06:47:39;;;;;;;4.18;2.80;;;;;;;;;;5104335;28;20024;-67
2023/09/11 06:50:05;;;;;;;6.57;2.53;;;;;;;;;;5106974;28;20480;-67
2023/09/11 06:52:38;;;;;;;5.72;2.67;;;;;;;;;;5105149;28;20099;-67
2023/09/11 06:55:04;;;;;;;4.30;2.60;;;;;;;;;;5101984;28;20471;-68
2023/09/11 06:57:31;;;;;;;4.72;2.42;;;;;;;;;;5085641;28;20093;-68
2023/09/11 06:59:57;;;;;;;6.35;2.53;;;;;;;;;;5078228;28;20039;-68
2023/09/11 07:02:23;;;;;;;7.00;2.50;;;;;;;;;;5108939;28;20016;-67
2023/09/11 07:04:49;;;;;;;6.22;2.53;;;;;;;;;;5105755;28;20538;-67
2023/09/11 07:07:15;;;;;;;6.25;2.85;;;;;;;;;;5109925;28;20106;-68
2023/09/11 07:09:41;;;;;;;5.85;2.85;;;;;;;;;;5110538;28;20054;-67
2023/09/11 07:12:07;;;;;;;4.38;2.10;;;;;;;;;;5106578;28;20036;-67
2023/09/11 07:14:33;;;;;;;5.25;2.40;;;;;;;;;;5091305;28;20483;-67
2023/09/11 07:17:02;;;;;;;3.88;2.60;;;;;;;;;;5108270;28;20116;-67
2023/09/11 07:19:28;;;;;;;5.38;2.63;;;;;;;;;;5106395;28;20048;-67
2023/09/11 07:21:54;;;;;;;5.50;2.75;;;;;;;;;;5104759;28;20032;-68
2023/09/11 07:24:20;;;;;;;5.20;2.70;;;;;;;;;;5088657;28;20548;-67
2023/09/11 07:26:46;;;;;;;5.43;2.85;;;;;;;;;;5097648;28;20048;-67
2023/09/11 07:29:12;;;;;;;5.95;2.60;;;;;;;;;;5105490;28;20457;-67
2023/09/11 07:31:38;;;;;;;4.88;2.50;;;;;;;;;;5107058;28;20512;-67
2023/09/11 07:34:04;;;;;;;4.65;2.42;;;;;;;;;;5104401;28;20054;-67
2023/09/11 07:36:30;;;;;;;5.70;2.63;;;;;;;;;;5089581;28;20502;-67
2023/09/11 07:38:57;;;;;;;6.93;2.70;;;;;;;;;;5110971;28;20035;-67
2023/09/11 07:41:23;;;;;;;4.85;2.50;;;;;;;;;;5099599;28;20403;-67
2023/09/11 07:43:49;;;;;;;3.67;2.60;;;;;;;;;;5104283;28;20027;-67
2023/09/11 07:46:19;;;;;;;4.43;2.65;;;;;;;;;;5095083;28;20023;-67
2023/09/11 07:48:45;;;;;;;5.13;2.38;;;;;;;;;;5084334;28;20055;-68
2023/09/11 07:51:12;;;;;;;4.35;2.58;;;;;;;;;;5104882;28;20128;-66
2023/09/11 07:53:38;;;;;;;3.42;2.10;;;;;;;;;;5105164;28;20031;-69
2023/09/11 07:56:08;;;;;;;5.63;2.30;;;;;;;;;;5104187;28;20038;-68
2023/09/11 07:58:37;;;;;;;4.60;2.80;;;;;;;;;;5106630;28;20513;-68
2023/09/11 08:01:03;;;;;;;4.53;2.30;;;;;;;;;;5088516;28;20537;-68
2023/09/11 08:03:31;;;;;;;4.82;2.30;;;;;;;;;;5089401;28;20023;-68
2023/09/11 08:05:57;;;;;;;6.55;2.47;;;;;;;;;;5101524;28;20056;-68
2023/09/11 08:08:23;;;;;;;4.70;2.63;;;;;;;;;;5100912;28;20077;-68
2023/09/11 08:10:49;;;;;;;5.05;2.50;;;;;;;;;;5088678;28;20077;-68
2023/09/11 08:13:15;;;;;;;4.93;2.53;;;;;;;;;;5104723;28;20498;-68
2023/09/11 08:15:41;;;;;;;9.65;2.70;;;;;;;;;;5106778;28;20082;-68
2023/09/11 08:18:07;;;;;;;4.55;2.58;;;;;;;;;;5098937;28;20048;-68
2023/09/11 08:20:34;;;;;;;5.88;2.63;;;;;;;;;;5086281;28;20056;-68
2023/09/11 08:23:01;;;;;;;4.38;2.47;;;;;;;;;;5103772;28;20320;-68
2023/09/11 08:25:27;;;;;;;8.05;2.97;;;;;;;;;;5092521;28;20024;-68
2023/09/11 08:27:53;;;;;;;5.00;2.60;;;;;;;;;;5105271;28;20848;-68
2023/09/11 08:30:19;;;;;;;5.97;2.60;;;;;;;;;;5105232;28;20079;-68
2023/09/11 08:32:46;;;;;;;9.20;3.40;;;;;;;;;;5102347;28;20532;-68
2023/09/11 08:35:12;;;;;;;4.90;2.53;;;;;;;;;;5104708;28;20024;-68
2023/09/11 08:37:38;;;;;;;6.95;3.00;;;;;;;;;;5105363;28;20080;-68
2023/09/11 08:40:04;;;;;;;3.55;2.47;;;;;;;;;;5099789;28;20548;-68
2023/09/11 08:42:31;;;;;;;5.45;2.72;;;;;;;;;;5106940;28;20108;-68
2023/09/11 08:44:57;;;;;;;6.28;2.58;;;;;;;;;;5108656;28;20387;-68
2023/09/11 08:47:28;;;;;;;5.03;2.40;;;;;;;;;;5094712;28;20542;-68
2023/09/11 08:49:56;;;;;;;7.07;3.53;;;;;;;;;;5106817;28;20114;-68
2023/09/11 08:52:22;;;;;;;12.15;4.10;;;;;;;;;;5103101;28;20068;-68
2023/09/11 08:54:50;;;;;;;10.52;4.78;;;;;;;;;;5102694;28;20522;-68
2023/09/11 08:57:16;;;;;;;6.80;3.85;;;;;;;;;;5080945;28;20395;-68
2023/09/11 08:59:44;;;;;;;6.97;3.83;;;;;;;;;;5100835;28;20023;-68
2023/09/11 09:02:13;;;;;;;10.02;3.78;;;;;;;;;;5104012;28;20023;-68
2023/09/11 09:04:40;;;;;;;8.15;4.22;;;;;;;;;;5097092;28;20590;-68
2023/09/11 09:07:07;;;;;;;8.68;3.30;;;;;;;;;;5105680;28;20102;-68
2023/09/11 09:09:33;;;;;;;8.77;4.15;;;;;;;;;;5105842;28;20534;-68
2023/09/11 09:11:59;;;;;;;7.32;3.80;;;;;;;;;;5083718;28;20563;-68
2023/09/11 09:14:28;;;;;;;8.38;4.15;;;;;;;;;;5104713;28;20034;-68
2023/09/11 09:16:56;;;;;;;8.15;3.90;;;;;;;;;;5102343;28;20047;-68
2023/09/11 09:19:22;;;;;;;7.50;3.53;;;;;;;;;;5097250;28;20032;-68
2023/09/11 09:22:18;;;;;;;8.82;4.65;;;;;;;;;;5104661;28;20028;-68
2023/09/11 09:24:48;;;;;;;8.65;4.07;;;;;;;;;;5085697;28;20593;-68
2023/09/11 09:27:14;;;;;;;7.95;4.10;;;;;;;;;;5103843;28;20114;-68
2023/09/11 09:29:40;;;;;;;12.18;4.43;;;;;;;;;;5091514;28;20035;-68
2023/09/11 09:32:08;;;;;;;14.35;4.55;;;;;;;;;;5104521;28;20437;-68
2023/09/11 09:34:34;;;;;;;7.28;3.67;;;;;;;;;;5104380;28;20095;-68
2023/09/11 09:37:01;;;;;;;8.82;4.55;;;;;;;;;;5086314;28;20514;-68
2023/09/11 09:39:28;;;;;;;7.93;4.82;;;;;;;;;;5098900;28;20443;-68
2023/09/11 09:41:58;;;;;;;8.65;3.70;;;;;;;;;;5105424;28;20360;-68
2023/09/11 09:44:34;;;;;;;6.28;3.65;;;;;;;;;;5099973;28;20033;-68
2023/09/11 09:47:10;;;;;;;8.02;3.78;;;;;;;;;;5101869;28;20071;-67
2023/09/11 09:49:55;;;;;;;7.55;4.30;;;;;;;;;;5098554;28;20483;-68
2023/09/11 09:52:25;;;;;;;7.25;3.97;;;;;;;;;;5100826;28;20027;-70
2023/09/11 09:54:54;;;;;;;8.18;4.28;;;;;;;;;;5096505;28;20031;-69
2023/09/11 09:57:21;;;;;;;7.10;3.63;;;;;;;;;;5083412;28;20411;-68
2023/09/11 09:59:48;;;;;;;8.77;3.80;;;;;;;;;;5103441;28;20036;-68
2023/09/11 10:02:14;;;;;;;7.95;3.78;;;;;;;;;;5101869;28;20015;-68
2023/09/11 10:04:40;;;;;;;5.22;3.92;;;;;;;;;;5102283;28;20090;-69
2023/09/11 10:07:07;;;;;;;6.30;3.53;;;;;;;;;;5085691;28;20122;-72
2023/09/11 10:09:34;;;;;;;8.80;3.55;;;;;;;;;;5073812;28;20455;-71
2023/09/11 10:12:04;;;;;;;7.35;4.20;;;;;;;;;;5095005;28;20388;-71
2023/09/11 10:14:31;;;;;;;5.88;3.30;;;;;;;;;;5074103;28;20031;-71
2023/09/11 10:17:01;;;;;;;9.15;4.00;;;;;;;;;;5067107;28;20136;-70
2023/09/11 10:19:30;;;;;;;5.80;3.55;;;;;;;;;;5097428;28;20118;-68
2023/09/11 10:21:56;;;;;;;7.10;3.78;;;;;;;;;;5074153;28;20395;-66
2023/09/11 10:24:22;;;;;;;5.70;3.55;;;;;;;;;;5095535;28;20035;-72
2023/09/11 10:26:51;;;;;;;9.25;4.40;;;;;;;;;;5072240;28;20038;-71
2023/09/11 10:29:22;;;;;;;9.32;4.25;;;;;;;;;;5096227;28;20111;-71
2023/09/11 10:32:10;;;;;;;9.55;4.68;;;;;;;;;;5097140;28;20427;-67
2023/09/11 10:34:38;;;;;;;12.60;5.43;;;;;;;;;;5095666;28;20027;-68
2023/09/11 10:37:05;;;;;;;6.97;3.40;;;;;;;;;;5094220;28;20746;-66
2023/09/11 10:39:32;;;;;;;6.80;3.25;;;;;;;;;;5090845;28;20443;-68
2023/09/11 10:41:58;;;;;;;5.82;3.10;;;;;;;;;;5094263;28;20112;-71
2023/09/11 10:44:24;;;;;;;6.20;2.95;;;;;;;;;;5097810;28;20376;-66
2023/09/11 10:46:51;;;;;;;8.63;3.08;;;;;;;;;;5096701;28;20027;-66
2023/09/11 10:49:18;;;;;;;6.80;3.13;;;;;;;;;;5088412;28;20032;-66
2023/09/11 10:51:48;;;;;;;4.97;2.85;;;;;;;;;;5095066;28;20535;-66
2023/09/11 10:54:24;;;;;;;5.80;3.03;;;;;;;;;;5091404;28;20019;-68
2023/09/11 10:56:51;;;;;;;4.97;2.65;;;;;;;;;;5096917;28;20466;-64
2023/09/11 10:59:17;;;;;;;3.92;2.80;;;;;;;;;;5092278;28;20036;-66
2023/09/11 11:01:47;;;;;;;4.30;2.70;;;;;;;;;;5099750;28;20034;-67
2023/09/11 11:04:14;;;;;;;3.28;2.90;;;;;;;;;;5093649;28;20058;-68
2023/09/11 11:06:43;;;;;;;3.55;2.40;;;;;;;;;;5096983;28;20036;-68
2023/09/11 11:09:29;;;;;;;3.78;2.45;;;;;;;;;;5095230;28;20490;-69
2023/09/11 11:11:59;;;;;;;3.53;2.63;;;;;;;;;;5095128;28;20035;-67
2023/09/11 11:14:25;;;;;;;4.03;2.60;;;;;;;;;;5098042;28;20043;-67
2023/09/11 11:17:00;;;;;;;3.70;2.42;;;;;;;;;;5087230;28;20051;-68
2023/09/11 11:19:32;;;;;;;2.92;2.30;;;;;;;;;;5091487;28;20579;-68
2023/09/11 11:22:02;;;;;;;3.42;2.67;;;;;;;;;;5096956;28;20039;-66
2023/09/11 11:24:34;;;;;;;3.13;2.53;;;;;;;;;;5096259;28;20567;-66
2023/09/11 11:27:01;;;;;;;3.08;2.22;;;;;;;;;;5095899;28;20113;-66
2023/09/11 11:29:27;;;;;;;3.83;2.58;;;;;;;;;;5097028;28;20503;-68
2023/09/11 11:31:54;;;;;;;5.93;3.13;;;;;;;;;;5098421;28;20446;-67
2023/09/11 11:34:25;;;;;;;5.07;3.03;;;;;;;;;;5093580;28;20403;-67
2023/09/11 11:36:54;;;;;;;4.47;3.17;;;;;;;;;;5096116;28;20027;-68
2023/09/11 11:39:22;;;;;;;3.85;2.83;;;;;;;;;;5091632;28;20055;-69
2023/09/11 11:41:48;;;;;;;5.07;3.05;;;;;;;;;;5087247;28;20032;-69
2023/09/11 11:44:14;;;;;;;4.28;3.00;;;;;;;;;;5094583;28;20297;-68
2023/09/11 11:46:40;;;;;;;4.57;2.60;;;;;;;;;;5097952;28;20042;-66
2023/09/11 11:49:07;;;;;;;6.30;2.88;;;;;;;;;;5091310;28;20065;-67
2023/09/11 11:51:33;;;;;;;5.53;2.67;;;;;;;;;;5099477;28;20042;-66
2023/09/11 11:53:59;;;;;;;6.22;3.20;;;;;;;;;;5099300;28;20108;-66
2023/09/11 11:56:26;;;;;;;5.57;3.00;;;;;;;;;;5101007;28;20479;-66
2023/09/11 11:58:59;;;;;;;4.10;2.60;;;;;;;;;;5081503;28;20441;-69
2023/09/11 12:01:25;;;;;;;4.18;2.97;;;;;;;;;;5095335;28;20063;-66
2023/09/11 12:03:51;;;;;;;5.60;2.83;;;;;;;;;;5097076;28;20057;-67
2023/09/11 12:06:20;;;;;;;3.45;2.55;;;;;;;;;;5092354;28;20452;-67
2023/09/11 12:08:47;;;;;;;4.05;2.60;;;;;;;;;;5098011;28;20035;-68
2023/09/11 12:11:13;;;;;;;4.80;2.35;;;;;;;;;;5096551;28;20208;-66
2023/09/11 12:13:39;;;;;;;4.40;2.83;;;;;;;;;;5064031;28;20036;-67
2023/09/11 12:16:05;;;;;;;4.35;2.80;;;;;;;;;;5102949;28;20046;-71
2023/09/11 12:18:36;;;;;;;3.47;2.85;;;;;;;;;;5099539;28;20028;-71
2023/09/11 12:21:07;;;;;;;3.33;2.30;;;;;;;;;;5094392;28;20028;-71
2023/09/11 12:23:33;;;;;;;2.40;2.10;;;;;;;;;;5096370;28;20038;-70
2023/09/11 12:26:00;;;;;;;2.97;2.28;;;;;;;;;;5082455;28;20028;-72
2023/09/11 12:28:27;;;;;;;3.47;2.30;;;;;;;;;;5094038;28;20031;-72
2023/09/11 12:30:54;;;;;;;3.65;2.30;;;;;;;;;;5098010;28;20035;-74
2023/09/11 12:33:27;;;;;;;3.53;2.30;;;;;;;;;;5096608;28;20058;-70
2023/09/11 12:35:54;;;;;;;3.35;2.63;;;;;;;;;;5094787;28;20097;-70
2023/09/11 12:38:20;;;;;;;3.17;2.28;;;;;;;;;;5098939;28;20031;-71
2023/09/11 12:40:48;;;;;;;2.40;2.10;;;;;;;;;;5102815;28;20031;-69
2023/09/11 12:43:15;;;;;;;4.78;2.10;;;;;;;;;;5101333;28;20524;-69
2023/09/11 12:45:41;;;;;;;3.03;2.08;;;;;;;;;;5099460;28;20383;-68
2023/09/11 12:48:07;;;;;;;2.85;2.55;;;;;;;;;;5098255;27;20110;-68
2023/09/11 12:50:34;;;;;;;3.80;2.30;;;;;;;;;;5100848;28;20023;-68
2023/09/11 12:53:01;;;;;;;4.45;2.20;;;;;;;;;;5100654;28;20475;-67
2023/09/11 12:55:27;;;;;;;2.60;2.15;;;;;;;;;;5101588;28;20054;-67
2023/09/11 12:57:57;;;;;;;3.42;1.80;;;;;;;;;;5079588;28;20028;-67
2023/09/11 13:00:27;;;;;;;4.18;2.10;;;;;;;;;;5099389;28;20027;-67
2023/09/11 13:02:56;;;;;;;4.20;1.92;;;;;;;;;;5099432;28;20045;-69
2023/09/11 13:05:23;;;;;;;2.42;1.80;;;;;;;;;;5098168;28;20036;-68
2023/09/11 13:07:49;;;;;;;3.00;2.00;;;;;;;;;;5098548;28;20077;-70
2023/09/11 13:10:16;;;;;;;3.00;2.25;;;;;;;;;;5093691;28;20050;-70
2023/09/11 13:12:43;;;;;;;2.22;1.75;;;;;;;;;;5098307;28;20471;-70
2023/09/11 13:15:10;;;;;;;2.20;2.00;;;;;;;;;;5098864;28;20024;-69
2023/09/11 13:17:36;;;;;;;2.45;1.90;;;;;;;;;;5099475;28;20011;-70
2023/09/11 13:20:05;;;;;;;1.67;1.50;;;;;;;;;;5099556;28;20042;-71
2023/09/11 13:22:32;;;;;;;2.05;1.60;;;;;;;;;;5100056;28;20487;-70
2023/09/11 13:24:58;;;;;;;1.67;1.58;;;;;;;;;;5102916;28;20023;-70
2023/09/11 13:27:24;;;;;;;1.73;1.52;;;;;;;;;;5099034;27;20102;-70
2023/09/11 13:29:52;;;;;;;2.72;1.50;;;;;;;;;;5096399;28;20023;-69
2023/09/11 13:32:18;;;;;;;2.63;1.73;;;;;;;;;;5097854;28;20062;-70
2023/09/11 13:34:45;;;;;;;3.72;1.58;;;;;;;;;;5096471;28;20043;-70
2023/09/11 13:37:12;;;;;;;1.90;1.50;;;;;;;;;;5089992;28;20019;-70
2023/09/11 13:39:38;;;;;;;4.07;1.65;;;;;;;;;;5078098;28;20040;-70
2023/09/11 13:42:04;;;;;;;1.63;1.52;;;;;;;;;;5097920;28;20030;-70
2023/09/11 13:44:30;;;;;;;1.60;1.50;;;;;;;;;;5089954;28;20391;-68
2023/09/11 13:46:56;;;;;;;2.47;1.70;;;;;;;;;;5095666;28;20388;-68
2023/09/11 13:49:22;;;;;;;1.95;1.60;;;;;;;;;;5095149;28;20035;-65
2023/09/11 13:51:52;;;;;;;2.47;1.73;;;;;;;;;;5099136;28;20038;-66
2023/09/11 13:54:18;;;;;;;2.30;1.90;;;;;;;;;;5080237;28;20035;-68
2023/09/11 13:56:44;;;;;;;1.90;1.70;;;;;;;;;;5083912;27;20114;-69
2023/09/11 13:59:10;;;;;;;2.00;1.80;;;;;;;;;;5102510;27;20421;-70
2023/09/11 14:01:36;;;;;;;3.28;1.95;;;;;;;;;;5100626;28;20456;-69
2023/09/11 14:04:02;;;;;;;2.60;1.67;;;;;;;;;;5101104;28;20031;-68
2023/09/11 14:06:29;;;;;;;2.25;1.80;;;;;;;;;;5106676;27;20503;-69
2023/09/11 14:08:55;;;;;;;2.40;1.80;;;;;;;;;;5080305;28;20454;-68
2023/09/11 14:11:21;;;;;;;2.45;1.77;;;;;;;;;;5087947;28;20091;-69
2023/09/11 14:13:47;;;;;;;2.00;1.80;;;;;;;;;;5096207;28;20441;-69
2023/09/11 14:16:14;;;;;;;2.58;1.80;;;;;;;;;;5098544;28;20050;-70
2023/09/11 14:18:40;;;;;;;2.10;1.83;;;;;;;;;;5101858;28;20038;-71
2023/09/11 14:21:06;;;;;;;2.60;2.00;;;;;;;;;;5106137;27;20028;-70
2023/09/11 14:23:32;;;;;;;1.70;1.60;;;;;;;;;;5090511;28;20020;-71
2023/09/11 14:25:58;;;;;;;2.20;1.98;;;;;;;;;;5094813;28;20027;-70
2023/09/11 14:28:24;;;;;;;1.90;1.70;;;;;;;;;;5094052;28;20032;-70
2023/09/11 14:30:50;;;;;;;2.70;1.80;;;;;;;;;;5094446;28;20530;-70
2023/09/11 14:33:17;;;;;;;1.85;1.70;;;;;;;;;;5100948;28;20371;-70
2023/09/11 14:35:43;;;;;;;1.77;1.60;;;;;;;;;;5095743;28;20123;-70
2023/09/11 14:38:12;;;;;;;1.75;1.60;;;;;;;;;;5100492;28;20031;-70
2023/09/11 14:40:38;;;;;;;2.17;1.65;;;;;;;;;;5096329;28;20487;-70
2023/09/11 14:43:04;;;;;;;1.70;1.60;;;;;;;;;;5101367;28;20375;-70